• Join FlightAware (Why Join?)
  • Login
  • US Flag 
01:37AM EST


 

Airport Tracker/Info


-or-


 

Live Flight TrackerFlight Track Log ✈ ASQ5988 ✈ 10-May-2013 ✈ KDAY - KORD

Flight Track Log - Related Links

Times and Time Zones

All times are in EDT time to prevent confusion due to time zone crossing. See the ASQ5988 flight status page for this flight to view local times or setup timezone preferences in your user account.

Time Position Orientation Groundspeed Altitude Reporting Facility
EDT Latitude Longitude Course Direction KTS MPH feet Rate Location/Type
07:50PM 39.8889 -84.2867 257° West 170 196 3,000  Level Indianapolis Center
07:50PM 39.8892 -84.3181 271° West 178 205 3,700 1,680 Climbing Indianapolis Center
07:51PM 39.9111 -84.3864 293° West 210 242 5,600 1,860 Climbing Indianapolis Center
07:52PM 40.0994 -84.3994 323° Northwest  Level FlightAware Approximate
07:52PM 39.9719 -84.4314 330° Northwest 245 282 7,600  Level Indianapolis Center
07:53PM 40.1570 -84.4654 327° Northwest  Level FlightAware Approximate
07:53PM 40.0350 -84.4739 333° Northwest 254 292 9,600  Level Indianapolis Center
07:54PM 40.2252 -84.5241 326° Northwest  Level FlightAware Approximate
07:54PM 40.0992 -84.5236 329° Northwest 261 300 11,300  Level Indianapolis Center
07:55PM 40.1722 -84.5758 331° Northwest 284 327 12,600 1,200 Climbing Indianapolis Center
07:56PM 40.2503 -84.6344 330° Northwest 311 358 13,800 1,080 Climbing Indianapolis Center
07:57PM 40.3331 -84.6950 331° Northwest 333 383 14,900 1,020 Climbing Indianapolis Center
07:58PM 40.4189 -84.7597 330° Northwest 348 400 16,000 1,080 Climbing Indianapolis Center
07:59PM 40.5061 -84.8256 330° Northwest 356 410 17,200 1,140 Climbing Indianapolis Center
08:00PM 40.5947 -84.8936 330° Northwest 364 419 18,400 1,200 Climbing Indianapolis Center
08:01PM 40.6372 -84.9244 331° Northwest 363 418 19,000 1,200 Climbing Chicago Center
08:02PM 40.7203 -85.0081 323° Northwest 370 426 20,200 1,140 Climbing Chicago Center
08:03PM 40.7864 -85.1108 310° West 368 423 21,400 840 Climbing Chicago Center
08:04PM 40.8536 -85.2128 311° West 368 423 22,000 240 Climbing Chicago Center
08:05PM 40.9256 -85.3239 311° West 385 443 22,000  Level Chicago Center
08:06PM 41.0008 -85.4383 311° West 405 466 22,000  Level Chicago Center
08:07PM 41.0903 -85.5792 310° West 414 476 22,000  Level Chicago Center
08:08PM 41.1386 -85.7092 296° West 394 453 22,000  Level Chicago Center
08:09PM 41.1772 -85.8394 292° West 382 440 22,000  Level Chicago Center
08:10PM 41.2158 -85.9722 291° West 382 440 22,000  Level Chicago Center
08:11PM 41.2578 -86.1100 292° West 397 457 22,000  Level Chicago Center
08:12PM 41.2975 -86.2508 291° West 405 466 22,000  Level Chicago Center
08:13PM 41.3386 -86.3917 291° West 407 468 22,000 -420 Level Chicago Center
08:14PM 41.3861 -86.5547 291° West 396 456 21,200 -1,320 Descending Chicago Center
08:15PM 41.4242 -86.6858 291° West 384 442 19,300 -1,920 Descending Chicago Center
08:16PM 41.4633 -86.8261 290° West 381 438 17,300 -1,860 Descending Chicago Center
08:17PM 41.5003 -86.9531 291° West 371 427 15,500 -1,800 Descending Chicago Center
08:18PM 41.5336 -87.0744 290° West 355 409 13,600 -1,740 Descending Chicago Center
08:19PM 41.5686 -87.1983 291° West 357 411 12,000 -1,020 Descending Chicago Center
08:20PM 41.6167 -87.2833 307° West 347 399 11,800 -600 Descending Chicago TRACON
08:20PM 41.6308 -87.3256 294° West 345 397 11,400 -1,200 Descending Chicago Center
08:21PM 41.6897 -87.4233 309° West 342 394 10,200 -720 Descending Chicago Center
08:22PM 41.7478 -87.5186 309° West 337 388 10,000 -240 Descending Chicago Center
08:23PM 41.8011 -87.6078 309° West 312 359 9,800 -600 Descending Chicago Center
08:24PM 41.8167 -87.6667 290° West 270 311 9,100 -1,140 Descending Chicago TRACON
08:25PM 41.8167 -87.7667 270° West 262 302 8,000 -1,140 Descending Chicago TRACON
08:26PM 41.8000 -87.8500 255° West 237 273 6,900 -1,140 Descending Chicago TRACON
08:27PM 41.8006 -87.8958 271° West 242 278 6,300 -1,140 Descending Chicago Center
08:28PM 41.7931 -87.9781 263° West 234 269 5,200 -1,020 Descending Chicago Center
08:29PM 41.8019 -88.0453 280° West 210 242 4,300 -720 Descending Chicago Center
08:30PM 41.8392 -88.0353 11° North 187 215 3,800 -900 Descending Chicago Center
08:31PM 41.8822 -87.9844 41° Northeast 177 204 2,500 -1,260 Descending Chicago Center